METAR Data
IDs: Format: Raw Decoded Include TAF

Data at: 0851 UTC 03 Aug 2021

LIMC 030820Z 35004KT 310V030 9999 BKN030 22/16 Q1016 NOSIG